sensor_id;sensor_type;location;lat;lon;timestamp;temperature;humidity
16283;DHT22;8249;48.708;9.030;2024-03-02T00:01:35;5.10;99.90
16283;DHT22;8249;48.708;9.030;2024-03-02T00:04:03;5.10;99.90
16283;DHT22;8249;48.708;9.030;2024-03-02T00:06:34;5.10;99.90
16283;DHT22;8249;48.708;9.030;2024-03-02T00:09:01;5.20;99.90
16283;DHT22;8249;48.708;9.030;2024-03-02T00:11:28;5.10;99.90
16283;DHT22;8249;48.708;9.030;2024-03-02T00:13:55;5.10;99.90
16283;DHT22;8249;48.708;9.030;2024-03-02T00:16:22;5.20;99.90
16283;DHT22;8249;48.708;9.030;2024-03-02T00:18:49;5.20;99.90
16283;DHT22;8249;48.708;9.030;2024-03-02T00:21:16;5.20;99.90
16283;DHT22;8249;48.708;9.030;2024-03-02T00:23:48;5.20;99.90
16283;DHT22;8249;48.708;9.030;2024-03-02T00:26:17;5.30;99.90
16283;DHT22;8249;48.708;9.030;2024-03-02T00:28:44;5.30;99.90
16283;DHT22;8249;48.708;9.030;2024-03-02T00:31:12;5.40;99.90
16283;DHT22;8249;48.708;9.030;2024-03-02T00:33:41;5.40;99.90
16283;DHT22;8249;48.708;9.030;2024-03-02T00:36:11;5.40;99.90
16283;DHT22;8249;48.708;9.030;2024-03-02T00:38:44;5.50;99.90
16283;DHT22;8249;48.708;9.030;2024-03-02T00:41:20;5.30;99.90
16283;DHT22;8249;48.708;9.030;2024-03-02T00:43:53;5.30;99.90
16283;DHT22;8249;48.708;9.030;2024-03-02T00:46:23;5.30;99.90
16283;DHT22;8249;48.708;9.030;2024-03-02T00:48:53;5.30;99.90
16283;DHT22;8249;48.708;9.030;2024-03-02T00:51:21;5.20;99.90
16283;DHT22;8249;48.708;9.030;2024-03-02T00:53:48;5.20;99.90
16283;DHT22;8249;48.708;9.030;2024-03-02T00:56:17;5.20;99.90
16283;DHT22;8249;48.708;9.030;2024-03-02T00:58:45;5.10;99.90
16283;DHT22;8249;48.708;9.030;2024-03-02T01:01:12;5.10;99.90
16283;DHT22;8249;48.708;9.030;2024-03-02T01:03:39;5.20;99.90
16283;DHT22;8249;48.708;9.030;2024-03-02T01:06:07;5.30;99.90
16283;DHT22;8249;48.708;9.030;2024-03-02T01:08:34;5.40;99.90
16283;DHT22;8249;48.708;9.030;2024-03-02T01:11:01;5.50;99.90
16283;DHT22;8249;48.708;9.030;2024-03-02T01:13:30;5.60;99.90
16283;DHT22;8249;48.708;9.030;2024-03-02T01:15:57;5.60;99.90
16283;DHT22;8249;48.708;9.030;2024-03-02T01:18:24;5.60;99.90
16283;DHT22;8249;48.708;9.030;2024-03-02T01:20:51;5.60;99.90
16283;DHT22;8249;48.708;9.030;2024-03-02T01:23:18;5.70;99.90
16283;DHT22;8249;48.708;9.030;2024-03-02T01:25:47;5.70;99.90
16283;DHT22;8249;48.708;9.030;2024-03-02T01:28:14;5.70;99.90
16283;DHT22;8249;48.708;9.030;2024-03-02T01:30:42;5.80;99.90
16283;DHT22;8249;48.708;9.030;2024-03-02T01:33:09;5.70;99.90
16283;DHT22;8249;48.708;9.030;2024-03-02T01:35:36;5.70;99.90
16283;DHT22;8249;48.708;9.030;2024-03-02T01:38:04;5.60;99.90
16283;DHT22;8249;48.708;9.030;2024-03-02T01:40:33;5.60;99.90
16283;DHT22;8249;48.708;9.030;2024-03-02T01:43:00;5.60;99.90
16283;DHT22;8249;48.708;9.030;2024-03-02T01:45:28;5.50;99.90
16283;DHT22;8249;48.708;9.030;2024-03-02T01:47:56;5.50;99.90
16283;DHT22;8249;48.708;9.030;2024-03-02T01:50:27;5.60;99.90
16283;DHT22;8249;48.708;9.030;2024-03-02T01:52:55;5.50;99.90
16283;DHT22;8249;48.708;9.030;2024-03-02T01:55:22;5.50;99.90
16283;DHT22;8249;48.708;9.030;2024-03-02T01:57:50;5.50;99.90
16283;DHT22;8249;48.708;9.030;2024-03-02T02:00:18;5.40;99.90
16283;DHT22;8249;48.708;9.030;2024-03-02T02:02:46;5.30;99.90
16283;DHT22;8249;48.708;9.030;2024-03-02T02:05:14;5.30;99.90
16283;DHT22;8249;48.708;9.030;2024-03-02T02:07:41;5.20;99.90
16283;DHT22;8249;48.708;9.030;2024-03-02T02:10:09;5.10;99.90
16283;DHT22;8249;48.708;9.030;2024-03-02T02:12:36;5.00;99.90
16283;DHT22;8249;48.708;9.030;2024-03-02T02:15:04;5.00;99.90
16283;DHT22;8249;48.708;9.030;2024-03-02T02:17:48;4.80;99.90
16283;DHT22;8249;48.708;9.030;2024-03-02T02:20:16;4.70;99.90
16283;DHT22;8249;48.708;9.030;2024-03-02T02:23:00;4.60;99.90
16283;DHT22;8249;48.708;9.030;2024-03-02T02:25:28;4.60;99.90
16283;DHT22;8249;48.708;9.030;2024-03-02T02:27:55;4.50;99.90
16283;DHT22;8249;48.708;9.030;2024-03-02T02:30:24;4.60;99.90
16283;DHT22;8249;48.708;9.030;2024-03-02T02:32:51;4.60;99.90
16283;DHT22;8249;48.708;9.030;2024-03-02T02:35:18;4.50;99.90
16283;DHT22;8249;48.708;9.030;2024-03-02T02:37:47;4.50;99.90
16283;DHT22;8249;48.708;9.030;2024-03-02T02:40:16;4.40;99.90
16283;DHT22;8249;48.708;9.030;2024-03-02T02:42:44;4.30;99.90
16283;DHT22;8249;48.708;9.030;2024-03-02T02:45:11;4.20;99.90
16283;DHT22;8249;48.708;9.030;2024-03-02T02:47:39;4.10;99.90
16283;DHT22;8249;48.708;9.030;2024-03-02T02:50:08;4.00;99.90
16283;DHT22;8249;48.708;9.030;2024-03-02T02:52:35;3.90;99.90
16283;DHT22;8249;48.708;9.030;2024-03-02T02:55:05;3.80;99.90
16283;DHT22;8249;48.708;9.030;2024-03-02T02:57:34;3.80;99.90
16283;DHT22;8249;48.708;9.030;2024-03-02T03:00:05;3.70;99.90
16283;DHT22;8249;48.708;9.030;2024-03-02T03:02:36;3.70;99.90
16283;DHT22;8249;48.708;9.030;2024-03-02T03:05:04;3.70;99.90
16283;DHT22;8249;48.708;9.030;2024-03-02T03:07:31;3.70;99.90
16283;DHT22;8249;48.708;9.030;2024-03-02T03:09:58;3.60;99.90
16283;DHT22;8249;48.708;9.030;2024-03-02T03:12:25;3.60;99.90
16283;DHT22;8249;48.708;9.030;2024-03-02T03:14:54;3.60;99.90
16283;DHT22;8249;48.708;9.030;2024-03-02T03:17:21;3.50;99.90
16283;DHT22;8249;48.708;9.030;2024-03-02T03:19:48;3.50;99.90
16283;DHT22;8249;48.708;9.030;2024-03-02T03:22:15;3.40;99.90
16283;DHT22;8249;48.708;9.030;2024-03-02T03:24:42;3.40;99.90
16283;DHT22;8249;48.708;9.030;2024-03-02T03:27:09;3.30;99.90
16283;DHT22;8249;48.708;9.030;2024-03-02T03:29:37;3.30;99.90
16283;DHT22;8249;48.708;9.030;2024-03-02T03:32:06;3.20;99.90
16283;DHT22;8249;48.708;9.030;2024-03-02T03:34:33;3.20;99.90
16283;DHT22;8249;48.708;9.030;2024-03-02T03:37:00;3.10;99.90
16283;DHT22;8249;48.708;9.030;2024-03-02T03:39:27;3.10;99.90
16283;DHT22;8249;48.708;9.030;2024-03-02T03:41:54;3.00;99.90
16283;DHT22;8249;48.708;9.030;2024-03-02T03:44:21;3.00;99.90
16283;DHT22;8249;48.708;9.030;2024-03-02T03:46:48;3.00;99.90
16283;DHT22;8249;48.708;9.030;2024-03-02T03:49:17;3.00;99.90
16283;DHT22;8249;48.708;9.030;2024-03-02T03:51:44;3.00;99.90
16283;DHT22;8249;48.708;9.030;2024-03-02T03:54:10;3.00;99.90
16283;DHT22;8249;48.708;9.030;2024-03-02T03:56:37;3.00;99.90
16283;DHT22;8249;48.708;9.030;2024-03-02T03:59:04;2.90;99.90
16283;DHT22;8249;48.708;9.030;2024-03-02T04:01:31;2.90;99.90
16283;DHT22;8249;48.708;9.030;2024-03-02T04:03:59;2.90;99.90
16283;DHT22;8249;48.708;9.030;2024-03-02T04:06:29;2.90;99.90
16283;DHT22;8249;48.708;9.030;2024-03-02T04:08:56;2.90;99.90
16283;DHT22;8249;48.708;9.030;2024-03-02T04:11:23;2.80;99.90
16283;DHT22;8249;48.708;9.030;2024-03-02T04:13:50;2.80;99.90
16283;DHT22;8249;48.708;9.030;2024-03-02T04:16:17;2.80;99.90
16283;DHT22;8249;48.708;9.030;2024-03-02T04:18:44;2.80;99.90
16283;DHT22;8249;48.708;9.030;2024-03-02T04:21:11;2.80;99.90
16283;DHT22;8249;48.708;9.030;2024-03-02T04:23:39;2.90;99.90
16283;DHT22;8249;48.708;9.030;2024-03-02T04:26:06;2.80;99.90
16283;DHT22;8249;48.708;9.030;2024-03-02T04:28:33;2.90;99.90
16283;DHT22;8249;48.708;9.030;2024-03-02T04:31:00;2.90;99.90
16283;DHT22;8249;48.708;9.030;2024-03-02T04:33:27;2.90;99.90
16283;DHT22;8249;48.708;9.030;2024-03-02T04:35:54;2.90;99.90
16283;DHT22;8249;48.708;9.030;2024-03-02T04:38:21;2.80;99.90
16283;DHT22;8249;48.708;9.030;2024-03-02T04:40:49;2.80;99.90
16283;DHT22;8249;48.708;9.030;2024-03-02T04:43:16;2.80;99.90
16283;DHT22;8249;48.708;9.030;2024-03-02T04:45:44;2.70;99.90
16283;DHT22;8249;48.708;9.030;2024-03-02T04:48:11;2.70;99.90
16283;DHT22;8249;48.708;9.030;2024-03-02T04:50:38;2.70;99.90
16283;DHT22;8249;48.708;9.030;2024-03-02T04:53:04;2.70;99.90
16283;DHT22;8249;48.708;9.030;2024-03-02T04:55:31;2.70;99.90
16283;DHT22;8249;48.708;9.030;2024-03-02T04:58:32;2.70;99.90
16283;DHT22;8249;48.708;9.030;2024-03-02T05:00:59;2.60;99.90
16283;DHT22;8249;48.708;9.030;2024-03-02T05:03:26;2.60;99.90
16283;DHT22;8249;48.708;9.030;2024-03-02T05:05:53;2.60;99.90
16283;DHT22;8249;48.708;9.030;2024-03-02T05:08:20;2.60;99.90
16283;DHT22;8249;48.708;9.030;2024-03-02T05:10:46;2.50;99.90
16283;DHT22;8249;48.708;9.030;2024-03-02T05:13:13;2.50;99.90
16283;DHT22;8249;48.708;9.030;2024-03-02T05:15:40;2.50;99.90
16283;DHT22;8249;48.708;9.030;2024-03-02T05:18:09;2.50;99.90
16283;DHT22;8249;48.708;9.030;2024-03-02T05:20:35;2.50;99.90
16283;DHT22;8249;48.708;9.030;2024-03-02T05:23:02;2.50;99.90
16283;DHT22;8249;48.708;9.030;2024-03-02T05:25:29;2.40;99.90
16283;DHT22;8249;48.708;9.030;2024-03-02T05:27:57;2.50;99.90
16283;DHT22;8249;48.708;9.030;2024-03-02T05:30:24;2.40;99.90
16283;DHT22;8249;48.708;9.030;2024-03-02T05:32:53;2.50;99.90
16283;DHT22;8249;48.708;9.030;2024-03-02T05:35:20;2.40;99.90
16283;DHT22;8249;48.708;9.030;2024-03-02T05:37:47;2.50;99.90
16283;DHT22;8249;48.708;9.030;2024-03-02T05:40:14;2.50;99.90
16283;DHT22;8249;48.708;9.030;2024-03-02T05:42:41;2.40;99.90
16283;DHT22;8249;48.708;9.030;2024-03-02T05:45:08;2.40;99.90
16283;DHT22;8249;48.708;9.030;2024-03-02T05:47:35;2.50;99.90
16283;DHT22;8249;48.708;9.030;2024-03-02T05:50:04;2.50;99.90
16283;DHT22;8249;48.708;9.030;2024-03-02T05:52:32;2.50;99.90
16283;DHT22;8249;48.708;9.030;2024-03-02T05:54:59;2.50;99.90
16283;DHT22;8249;48.708;9.030;2024-03-02T05:57:26;2.60;99.90
16283;DHT22;8249;48.708;9.030;2024-03-02T06:00:11;2.60;99.90
16283;DHT22;8249;48.708;9.030;2024-03-02T06:02:39;2.60;99.90
16283;DHT22;8249;48.708;9.030;2024-03-02T06:05:08;2.70;99.90
16283;DHT22;8249;48.708;9.030;2024-03-02T06:07:35;2.60;99.90
16283;DHT22;8249;48.708;9.030;2024-03-02T06:10:02;2.60;99.90
16283;DHT22;8249;48.708;9.030;2024-03-02T06:12:31;2.60;99.90
16283;DHT22;8249;48.708;9.030;2024-03-02T06:14:58;2.70;99.90
16283;DHT22;8249;48.708;9.030;2024-03-02T06:17:24;2.60;99.90
16283;DHT22;8249;48.708;9.030;2024-03-02T06:19:51;2.60;99.90
16283;DHT22;8249;48.708;9.030;2024-03-02T06:22:20;2.60;99.90
16283;DHT22;8249;48.708;9.030;2024-03-02T06:24:48;2.60;99.90
16283;DHT22;8249;48.708;9.030;2024-03-02T06:27:15;2.60;99.90
16283;DHT22;8249;48.708;9.030;2024-03-02T06:29:42;2.70;99.90
16283;DHT22;8249;48.708;9.030;2024-03-02T06:32:09;2.70;99.90
16283;DHT22;8249;48.708;9.030;2024-03-02T06:34:36;2.70;99.90
16283;DHT22;8249;48.708;9.030;2024-03-02T06:37:03;2.80;99.90
16283;DHT22;8249;48.708;9.030;2024-03-02T06:39:31;2.80;99.90
16283;DHT22;8249;48.708;9.030;2024-03-02T06:41:59;2.90;99.90
16283;DHT22;8249;48.708;9.030;2024-03-02T06:44:27;2.90;99.90
16283;DHT22;8249;48.708;9.030;2024-03-02T06:46:56;3.00;99.90
16283;DHT22;8249;48.708;9.030;2024-03-02T06:49:23;3.10;99.90
16283;DHT22;8249;48.708;9.030;2024-03-02T06:51:50;3.10;99.90
16283;DHT22;8249;48.708;9.030;2024-03-02T06:54:16;3.20;99.90
16283;DHT22;8249;48.708;9.030;2024-03-02T06:56:45;3.30;99.90
16283;DHT22;8249;48.708;9.030;2024-03-02T06:59:12;3.30;99.90
16283;DHT22;8249;48.708;9.030;2024-03-02T07:01:39;3.40;99.90
16283;DHT22;8249;48.708;9.030;2024-03-02T07:04:06;3.50;99.90
16283;DHT22;8249;48.708;9.030;2024-03-02T07:06:32;3.50;99.90
16283;DHT22;8249;48.708;9.030;2024-03-02T07:08:59;3.70;99.90
16283;DHT22;8249;48.708;9.030;2024-03-02T07:11:26;3.80;99.90
16283;DHT22;8249;48.708;9.030;2024-03-02T07:13:54;3.90;99.90
16283;DHT22;8249;48.708;9.030;2024-03-02T07:16:21;4.00;99.90
16283;DHT22;8249;48.708;9.030;2024-03-02T07:18:54;4.30;99.90
16283;DHT22;8249;48.708;9.030;2024-03-02T07:21:22;4.40;99.90
16283;DHT22;8249;48.708;9.030;2024-03-02T07:23:49;4.50;99.90
16283;DHT22;8249;48.708;9.030;2024-03-02T07:26:16;4.60;99.90
16283;DHT22;8249;48.708;9.030;2024-03-02T07:28:44;4.70;99.90
16283;DHT22;8249;48.708;9.030;2024-03-02T07:31:13;4.80;99.90
16283;DHT22;8249;48.708;9.030;2024-03-02T07:33:41;5.00;99.90
16283;DHT22;8249;48.708;9.030;2024-03-02T07:36:08;5.10;99.90
16283;DHT22;8249;48.708;9.030;2024-03-02T07:38:35;5.20;99.90
16283;DHT22;8249;48.708;9.030;2024-03-02T07:41:02;5.30;99.90
16283;DHT22;8249;48.708;9.030;2024-03-02T07:43:30;5.30;99.90
16283;DHT22;8249;48.708;9.030;2024-03-02T07:45:58;5.50;99.90
16283;DHT22;8249;48.708;9.030;2024-03-02T07:48:27;5.50;99.90
16283;DHT22;8249;48.708;9.030;2024-03-02T07:50:54;5.60;99.90
16283;DHT22;8249;48.708;9.030;2024-03-02T07:53:21;5.70;99.90
16283;DHT22;8249;48.708;9.030;2024-03-02T07:55:48;5.80;99.90
16283;DHT22;8249;48.708;9.030;2024-03-02T07:58:15;5.90;99.90
16283;DHT22;8249;48.708;9.030;2024-03-02T08:00:43;6.00;99.90
16283;DHT22;8249;48.708;9.030;2024-03-02T08:03:10;6.20;99.90
16283;DHT22;8249;48.708;9.030;2024-03-02T08:05:39;6.50;99.90
16283;DHT22;8249;48.708;9.030;2024-03-02T08:08:06;6.70;99.90
16283;DHT22;8249;48.708;9.030;2024-03-02T08:10:33;7.00;99.90
16283;DHT22;8249;48.708;9.030;2024-03-02T08:13:00;7.40;99.90
16283;DHT22;8249;48.708;9.030;2024-03-02T08:15:27;7.70;99.90
16283;DHT22;8249;48.708;9.030;2024-03-02T08:17:54;8.00;99.90
16283;DHT22;8249;48.708;9.030;2024-03-02T08:20:21;8.40;99.90
16283;DHT22;8249;48.708;9.030;2024-03-02T08:22:50;8.60;99.90
16283;DHT22;8249;48.708;9.030;2024-03-02T08:25:19;8.70;99.90
16283;DHT22;8249;48.708;9.030;2024-03-02T08:27:46;9.00;99.90
16283;DHT22;8249;48.708;9.030;2024-03-02T08:30:14;9.40;99.90
16283;DHT22;8249;48.708;9.030;2024-03-02T08:32:41;9.90;99.90
16283;DHT22;8249;48.708;9.030;2024-03-02T08:35:08;10.40;99.90
16283;DHT22;8249;48.708;9.030;2024-03-02T08:37:37;10.90;99.90
16283;DHT22;8249;48.708;9.030;2024-03-02T08:40:07;11.10;99.90
16283;DHT22;8249;48.708;9.030;2024-03-02T08:42:34;11.50;99.90
16283;DHT22;8249;48.708;9.030;2024-03-02T08:45:02;11.70;99.90
16283;DHT22;8249;48.708;9.030;2024-03-02T08:47:28;12.10;99.90
16283;DHT22;8249;48.708;9.030;2024-03-02T08:49:55;12.50;99.90
16283;DHT22;8249;48.708;9.030;2024-03-02T08:52:22;12.70;99.90
16283;DHT22;8249;48.708;9.030;2024-03-02T08:54:49;12.80;99.90
16283;DHT22;8249;48.708;9.030;2024-03-02T08:57:18;12.80;99.90
16283;DHT22;8249;48.708;9.030;2024-03-02T08:59:45;13.10;99.90
16283;DHT22;8249;48.708;9.030;2024-03-02T09:02:12;13.80;99.90
16283;DHT22;8249;48.708;9.030;2024-03-02T09:04:39;14.20;99.90
16283;DHT22;8249;48.708;9.030;2024-03-02T09:07:05;14.70;99.90
16283;DHT22;8249;48.708;9.030;2024-03-02T09:09:33;14.60;99.90
16283;DHT22;8249;48.708;9.030;2024-03-02T09:12:00;14.70;99.90
16283;DHT22;8249;48.708;9.030;2024-03-02T09:14:28;14.60;99.90
16283;DHT22;8249;48.708;9.030;2024-03-02T09:16:55;15.00;99.90
16283;DHT22;8249;48.708;9.030;2024-03-02T09:19:22;15.10;99.90
16283;DHT22;8249;48.708;9.030;2024-03-02T09:21:49;15.60;99.90
16283;DHT22;8249;48.708;9.030;2024-03-02T09:24:16;16.30;99.90
16283;DHT22;8249;48.708;9.030;2024-03-02T09:26:43;16.90;99.90
16283;DHT22;8249;48.708;9.030;2024-03-02T09:29:10;17.50;99.90
16283;DHT22;8249;48.708;9.030;2024-03-02T09:31:41;17.90;99.90
16283;DHT22;8249;48.708;9.030;2024-03-02T09:34:08;18.50;99.90
16283;DHT22;8249;48.708;9.030;2024-03-02T09:36:35;18.40;99.90
16283;DHT22;8249;48.708;9.030;2024-03-02T09:39:01;18.80;99.90
16283;DHT22;8249;48.708;9.030;2024-03-02T09:41:29;19.00;99.90
16283;DHT22;8249;48.708;9.030;2024-03-02T09:43:56;18.80;99.00
16283;DHT22;8249;48.708;9.030;2024-03-02T09:46:24;18.50;98.50
16283;DHT22;8249;48.708;9.030;2024-03-02T09:48:52;18.60;98.20
16283;DHT22;8249;48.708;9.030;2024-03-02T09:51:19;18.60;98.10
16283;DHT22;8249;48.708;9.030;2024-03-02T09:53:47;18.30;96.90
16283;DHT22;8249;48.708;9.030;2024-03-02T09:56:14;18.30;97.10
16283;DHT22;8249;48.708;9.030;2024-03-02T09:58:42;18.60;96.60
16283;DHT22;8249;48.708;9.030;2024-03-02T10:01:10;19.00;96.90
16283;DHT22;8249;48.708;9.030;2024-03-02T10:03:37;19.20;94.90
16283;DHT22;8249;48.708;9.030;2024-03-02T10:06:22;19.00;95.00
16283;DHT22;8249;48.708;9.030;2024-03-02T10:08:51;19.20;94.80
16283;DHT22;8249;48.708;9.030;2024-03-02T10:11:29;19.20;94.30
16283;DHT22;8249;48.708;9.030;2024-03-02T10:14:05;18.80;94.60
16283;DHT22;8249;48.708;9.030;2024-03-02T10:16:34;19.20;94.20
16283;DHT22;8249;48.708;9.030;2024-03-02T10:19:18;18.80;93.30
16283;DHT22;8249;48.708;9.030;2024-03-02T10:21:47;18.70;93.60
16283;DHT22;8249;48.708;9.030;2024-03-02T10:24:15;18.90;93.70
16283;DHT22;8249;48.708;9.030;2024-03-02T10:26:42;18.70;93.70
16283;DHT22;8249;48.708;9.030;2024-03-02T10:29:09;18.60;94.00
16283;DHT22;8249;48.708;9.030;2024-03-02T10:31:37;18.70;94.00
16283;DHT22;8249;48.708;9.030;2024-03-02T10:34:05;19.30;93.00
16283;DHT22;8249;48.708;9.030;2024-03-02T10:36:32;19.00;92.70
16283;DHT22;8249;48.708;9.030;2024-03-02T10:39:03;19.00;92.90
16283;DHT22;8249;48.708;9.030;2024-03-02T10:41:38;19.50;92.20
16283;DHT22;8249;48.708;9.030;2024-03-02T10:44:06;19.90;91.80
16283;DHT22;8249;48.708;9.030;2024-03-02T10:46:37;20.70;91.40
16283;DHT22;8249;48.708;9.030;2024-03-02T10:49:10;21.10;90.00
16283;DHT22;8249;48.708;9.030;2024-03-02T10:51:39;21.80;88.20
16283;DHT22;8249;48.708;9.030;2024-03-02T10:54:09;22.10;84.00
16283;DHT22;8249;48.708;9.030;2024-03-02T10:56:39;21.80;82.40
16283;DHT22;8249;48.708;9.030;2024-03-02T10:59:14;21.50;82.30
16283;DHT22;8249;48.708;9.030;2024-03-02T11:01:43;20.70;81.90
16283;DHT22;8249;48.708;9.030;2024-03-02T11:04:13;20.50;84.10
16283;DHT22;8249;48.708;9.030;2024-03-02T11:06:46;21.10;82.90
16283;DHT22;8249;48.708;9.030;2024-03-02T11:09:18;21.50;83.10
16283;DHT22;8249;48.708;9.030;2024-03-02T11:11:53;21.80;81.20
16283;DHT22;8249;48.708;9.030;2024-03-02T11:14:24;21.90;80.40
16283;DHT22;8249;48.708;9.030;2024-03-02T11:16:52;22.10;81.20
16283;DHT22;8249;48.708;9.030;2024-03-02T11:19:20;21.80;80.00
16283;DHT22;8249;48.708;9.030;2024-03-02T11:21:47;22.40;80.30
16283;DHT22;8249;48.708;9.030;2024-03-02T11:24:34;22.90;79.10
16283;DHT22;8249;48.708;9.030;2024-03-02T11:29:44;23.70;75.30
16283;DHT22;8249;48.708;9.030;2024-03-02T11:32:19;23.60;75.30
16283;DHT22;8249;48.708;9.030;2024-03-02T11:34:47;24.10;73.20
16283;DHT22;8249;48.708;9.030;2024-03-02T11:37:15;23.70;71.80
16283;DHT22;8249;48.708;9.030;2024-03-02T11:39:46;23.80;72.20
16283;DHT22;8249;48.708;9.030;2024-03-02T11:42:14;23.50;71.80
16283;DHT22;8249;48.708;9.030;2024-03-02T11:44:43;22.90;73.00
16283;DHT22;8249;48.708;9.030;2024-03-02T11:47:12;22.90;76.90
16283;DHT22;8249;48.708;9.030;2024-03-02T11:49:42;23.10;73.90
16283;DHT22;8249;48.708;9.030;2024-03-02T11:52:10;22.70;73.40
16283;DHT22;8249;48.708;9.030;2024-03-02T11:54:38;22.70;73.90
16283;DHT22;8249;48.708;9.030;2024-03-02T11:57:07;22.90;74.80
16283;DHT22;8249;48.708;9.030;2024-03-02T11:59:35;23.20;73.30
16283;DHT22;8249;48.708;9.030;2024-03-02T12:02:02;23.70;72.60
16283;DHT22;8249;48.708;9.030;2024-03-02T12:04:29;23.60;71.90
16283;DHT22;8249;48.708;9.030;2024-03-02T12:06:59;23.40;71.30
16283;DHT22;8249;48.708;9.030;2024-03-02T12:09:26;23.60;71.00
16283;DHT22;8249;48.708;9.030;2024-03-02T12:12:04;23.60;72.20
16283;DHT22;8249;48.708;9.030;2024-03-02T12:14:34;24.00;70.50
16283;DHT22;8249;48.708;9.030;2024-03-02T12:17:01;24.80;69.30
16283;DHT22;8249;48.708;9.030;2024-03-02T12:19:28;24.50;68.20
16283;DHT22;8249;48.708;9.030;2024-03-02T12:21:56;24.40;67.70
16283;DHT22;8249;48.708;9.030;2024-03-02T12:24:24;24.40;68.80
16283;DHT22;8249;48.708;9.030;2024-03-02T12:26:51;24.70;67.60
16283;DHT22;8249;48.708;9.030;2024-03-02T12:29:19;23.80;66.80
16283;DHT22;8249;48.708;9.030;2024-03-02T12:31:48;24.70;69.60
16283;DHT22;8249;48.708;9.030;2024-03-02T12:34:16;25.40;67.00
16283;DHT22;8249;48.708;9.030;2024-03-02T12:36:44;25.40;65.50
16283;DHT22;8249;48.708;9.030;2024-03-02T12:39:13;24.70;64.90
16283;DHT22;8249;48.708;9.030;2024-03-02T12:41:41;24.20;65.90
16283;DHT22;8249;48.708;9.030;2024-03-02T12:44:08;23.60;66.30
16283;DHT22;8249;48.708;9.030;2024-03-02T12:46:35;24.20;66.60
16283;DHT22;8249;48.708;9.030;2024-03-02T12:49:08;25.40;65.80
16283;DHT22;8249;48.708;9.030;2024-03-02T12:51:36;25.40;65.10
16283;DHT22;8249;48.708;9.030;2024-03-02T12:54:03;25.20;64.70
16283;DHT22;8249;48.708;9.030;2024-03-02T12:56:31;24.90;64.40
16283;DHT22;8249;48.708;9.030;2024-03-02T12:58:59;25.40;63.90
16283;DHT22;8249;48.708;9.030;2024-03-02T13:01:26;26.20;63.50
16283;DHT22;8249;48.708;9.030;2024-03-02T13:03:53;25.70;62.20
16283;DHT22;8249;48.708;9.030;2024-03-02T13:06:22;26.00;64.00
16283;DHT22;8249;48.708;9.030;2024-03-02T13:08:50;26.10;62.10
16283;DHT22;8249;48.708;9.030;2024-03-02T13:11:17;25.60;63.20
16283;DHT22;8249;48.708;9.030;2024-03-02T13:13:43;26.20;63.10
16283;DHT22;8249;48.708;9.030;2024-03-02T13:16:12;26.90;61.90
16283;DHT22;8249;48.708;9.030;2024-03-02T13:18:41;27.40;62.40
16283;DHT22;8249;48.708;9.030;2024-03-02T13:21:08;27.80;62.50
16283;DHT22;8249;48.708;9.030;2024-03-02T13:23:37;27.40;58.70
16283;DHT22;8249;48.708;9.030;2024-03-02T13:26:04;26.50;59.00
16283;DHT22;8249;48.708;9.030;2024-03-02T13:28:31;26.20;60.40
16283;DHT22;8249;48.708;9.030;2024-03-02T13:30:58;26.60;59.80
16283;DHT22;8249;48.708;9.030;2024-03-02T13:33:24;25.80;59.40
16283;DHT22;8249;48.708;9.030;2024-03-02T13:35:51;24.40;60.00
16283;DHT22;8249;48.708;9.030;2024-03-02T13:38:19;23.80;60.70
16283;DHT22;8249;48.708;9.030;2024-03-02T13:40:49;23.50;62.10
16283;DHT22;8249;48.708;9.030;2024-03-02T13:43:17;23.70;61.60
16283;DHT22;8249;48.708;9.030;2024-03-02T13:45:44;23.50;60.70
16283;DHT22;8249;48.708;9.030;2024-03-02T13:48:11;22.80;61.30
16283;DHT22;8249;48.708;9.030;2024-03-02T13:50:37;22.10;62.80
16283;DHT22;8249;48.708;9.030;2024-03-02T13:53:04;21.30;63.50
16283;DHT22;8249;48.708;9.030;2024-03-02T13:55:32;20.90;66.20
16283;DHT22;8249;48.708;9.030;2024-03-02T13:58:00;19.90;68.30
16283;DHT22;8249;48.708;9.030;2024-03-02T14:00:27;19.60;69.00
16283;DHT22;8249;48.708;9.030;2024-03-02T14:02:55;20.00;69.60
16283;DHT22;8249;48.708;9.030;2024-03-02T14:05:22;20.80;69.70
16283;DHT22;8249;48.708;9.030;2024-03-02T14:07:48;21.80;66.80
16283;DHT22;8249;48.708;9.030;2024-03-02T14:10:15;22.00;66.00
16283;DHT22;8249;48.708;9.030;2024-03-02T14:12:47;21.60;68.10
16283;DHT22;8249;48.708;9.030;2024-03-02T14:15:15;22.20;67.30
16283;DHT22;8249;48.708;9.030;2024-03-02T14:17:42;23.10;66.10
16283;DHT22;8249;48.708;9.030;2024-03-02T14:20:10;23.80;64.90
16283;DHT22;8249;48.708;9.030;2024-03-02T14:22:39;23.90;64.40
16283;DHT22;8249;48.708;9.030;2024-03-02T14:25:06;24.40;64.00
16283;DHT22;8249;48.708;9.030;2024-03-02T14:27:33;24.80;61.50
16283;DHT22;8249;48.708;9.030;2024-03-02T14:30:01;24.70;60.90
16283;DHT22;8249;48.708;9.030;2024-03-02T14:32:29;25.20;62.50
16283;DHT22;8249;48.708;9.030;2024-03-02T14:34:56;25.40;60.80
16283;DHT22;8249;48.708;9.030;2024-03-02T14:37:23;25.90;60.10
16283;DHT22;8249;48.708;9.030;2024-03-02T14:39:50;25.80;59.90
16283;DHT22;8249;48.708;9.030;2024-03-02T14:42:17;26.00;59.60
16283;DHT22;8249;48.708;9.030;2024-03-02T14:44:44;25.90;59.90
16283;DHT22;8249;48.708;9.030;2024-03-02T14:47:11;26.00;59.30
16283;DHT22;8249;48.708;9.030;2024-03-02T14:49:39;25.70;59.50
16283;DHT22;8249;48.708;9.030;2024-03-02T14:52:07;26.20;59.60
16283;DHT22;8249;48.708;9.030;2024-03-02T14:54:35;25.20;59.80
16283;DHT22;8249;48.708;9.030;2024-03-02T14:57:02;25.30;60.00
16283;DHT22;8249;48.708;9.030;2024-03-02T14:59:29;25.40;60.30
16283;DHT22;8249;48.708;9.030;2024-03-02T15:01:56;25.90;60.30
16283;DHT22;8249;48.708;9.030;2024-03-02T15:04:23;26.00;59.80
16283;DHT22;8249;48.708;9.030;2024-03-02T15:06:51;25.60;59.50
16283;DHT22;8249;48.708;9.030;2024-03-02T15:09:18;25.30;60.50
16283;DHT22;8249;48.708;9.030;2024-03-02T15:11:45;24.40;60.40
16283;DHT22;8249;48.708;9.030;2024-03-02T15:14:12;23.20;61.80
16283;DHT22;8249;48.708;9.030;2024-03-02T15:16:40;22.60;63.80
16283;DHT22;8249;48.708;9.030;2024-03-02T15:19:07;22.10;65.20
16283;DHT22;8249;48.708;9.030;2024-03-02T15:21:34;21.80;65.70
16283;DHT22;8249;48.708;9.030;2024-03-02T15:24:03;21.10;65.90
16283;DHT22;8249;48.708;9.030;2024-03-02T15:26:30;20.40;67.70
16283;DHT22;8249;48.708;9.030;2024-03-02T15:28:57;19.60;69.00
16283;DHT22;8249;48.708;9.030;2024-03-02T15:31:24;19.10;69.90
16283;DHT22;8249;48.708;9.030;2024-03-02T15:33:52;18.50;70.80
16283;DHT22;8249;48.708;9.030;2024-03-02T15:36:21;18.00;71.60
16283;DHT22;8249;48.708;9.030;2024-03-02T15:38:48;17.40;72.80
16283;DHT22;8249;48.708;9.030;2024-03-02T15:41:16;17.10;74.10
16283;DHT22;8249;48.708;9.030;2024-03-02T15:43:43;16.70;74.70
16283;DHT22;8249;48.708;9.030;2024-03-02T15:46:10;16.40;75.20
16283;DHT22;8249;48.708;9.030;2024-03-02T15:48:37;16.20;76.20
16283;DHT22;8249;48.708;9.030;2024-03-02T15:51:04;16.00;76.90
16283;DHT22;8249;48.708;9.030;2024-03-02T15:53:31;15.80;77.60
16283;DHT22;8249;48.708;9.030;2024-03-02T15:55:58;15.50;78.20
16283;DHT22;8249;48.708;9.030;2024-03-02T15:58:26;15.40;78.60
16283;DHT22;8249;48.708;9.030;2024-03-02T16:00:53;15.20;78.00
16283;DHT22;8249;48.708;9.030;2024-03-02T16:03:20;15.10;78.00